Tropical Cyclones
[Index]
Season 2017-2018 Tropical Cyclone ELIAKIM Track Map
Season 2017-2018 Summaries: [BoM-AU] [JTWC-AU] [JTWC-SIO] [JTWC-SPAC] [JTWC-SH]
<<- Previous TC | JTWC 2017-2018 Season | Next TC ->>

click for intensity scale information  Lat/long Grid: Show Hide

 Date Labels: Show Hide

Joint Typhoon Warning Centre Cyclone Data

Name: ELIAKIM

13 Mar 2018 18:00 UTC to 21 Mar 2018 06:00 UTC

    date/time    lat    long     hPa   cat  kts
2018-03-13 18   12.0    57.0    1004         25          
2018-03-14 00   12.7    56.5    1004         25          
2018-03-14 06   13.1    56.1    1000         30          
2018-03-14 12   13.7    55.7    1000         30          
2018-03-14 18   14.0    55.2    1000         30          
2018-03-15 00   14.7    54.4     998         35          
2018-03-15 06   15.1    53.7     992    1    45          
2018-03-15 12   15.4    53.1     990    1    50          
2018-03-15 12   15.4    53.1     990    1    50          
2018-03-15 18   15.8    51.8     989    2    55          
2018-03-15 18   15.8    51.8     989    2    55          
2018-03-16 00   15.9    51.0     986    2    60          
2018-03-16 00   15.9    51.0     986    2    60          
2018-03-16 06   15.8    50.5     982    2    65          
2018-03-16 06   15.8    50.5     982    2    65          
2018-03-16 12   15.8    50.2     984    2    60          
2018-03-16 12   15.8    50.2     984    2    60          
2018-03-16 18   15.7    49.7     989    2    55          
2018-03-16 18   15.7    49.7     989    2    55          
2018-03-17 00   15.7    49.6     991    1    50          
2018-03-17 06   15.9    49.4     994    1    45          
2018-03-17 12   16.4    49.4     996    1    40          
2018-03-17 18   17.3    49.5     996    1    40          
2018-03-18 00   18.4    49.5     996    1    40          
2018-03-18 06   19.5    49.2     993    1    45          
2018-03-18 12   20.1    49.4     993    1    45          
2018-03-18 18   21.1    49.7     993    1    45          
2018-03-19 00   22.1    49.9     992    1    45          
2018-03-19 06   23.1    50.3     987    1    50          
2018-03-19 12   24.0    50.8     987    1    50          
2018-03-19 18   25.1    51.6     984    2    55          
2018-03-20 00   26.3    52.3     984    2    55          
2018-03-20 06   27.5    53.0     987    1    50          
2018-03-20 12   28.8    53.8     987    1    50          
2018-03-20 18   30.1    54.5     987    1    50          
2018-03-21 00   31.4    54.8     987    1    50          
2018-03-21 06   32.3    55.5     987    1    50          
2018-03-21 06   32.3    55.5     987    1    50          
Winds are 1-min average.

Tropical cyclone tracks developed by Michael Bath using data from the Joint Typhoon Warning Centre Best Tracks and Google Maps.


Document: tropical_cyclone_eliakim.htm
Updated: 17 June 2020
[Australian Severe Weather index] [Copyright Notice] [Email Contacts] [Search This Site] [Privacy Policy]


Main Index Home Page Stock Weather Photos Extreme Storms Discussion Storm News and Storm Chasing Reports Tropical Cyclones / Hurricanes / Typhoons Weather Data and Links Wild Fires / Bushfires Weather Observation Techniques Weather Picture Catalogue Tornado Pictures and Reports Stock Video Footage and DVDs for sale